sensor_id;sensor_type;location;lat;lon;timestamp;pressure;altitude;pressure_sealevel;temperature;humidity
31225;BME280;17847;31.524;74.366;2022-11-15T00:02:03;99170.22;;;17.27;73.37
31225;BME280;17847;31.524;74.366;2022-11-15T00:05:04;99167.75;;;17.09;73.86
31225;BME280;17847;31.524;74.366;2022-11-15T00:08:20;99177.94;;;17.01;73.95
31225;BME280;17847;31.524;74.366;2022-11-15T00:11:14;99182.31;;;17.02;73.57
31225;BME280;17847;31.524;74.366;2022-11-15T00:14:27;99183.06;;;17.15;73.72
31225;BME280;17847;31.524;74.366;2022-11-15T00:17:28;99190.53;;;17.25;73.61
31225;BME280;17847;31.524;74.366;2022-11-15T00:20:42;99189.53;;;17.31;73.28
31225;BME280;17847;31.524;74.366;2022-11-15T00:23:43;99202.72;;;17.22;73.79
31225;BME280;17847;31.524;74.366;2022-11-15T00:26:50;99198.28;;;17.16;73.16
31225;BME280;17847;31.524;74.366;2022-11-15T00:29:51;99187.31;;;17.11;73.46
31225;BME280;17847;31.524;74.366;2022-11-15T00:33:02;99203.75;;;17.21;73.07
31225;BME280;17847;31.524;74.366;2022-11-15T00:36:08;99197.50;;;17.03;73.61
31225;BME280;17847;31.524;74.366;2022-11-15T00:39:17;99200.69;;;17.00;73.54
31225;BME280;17847;31.524;74.366;2022-11-15T00:42:17;99208.34;;;17.03;73.46
31225;BME280;17847;31.524;74.366;2022-11-15T00:45:31;99211.72;;;17.11;73.63
31225;BME280;17847;31.524;74.366;2022-11-15T00:48:25;99219.34;;;17.14;73.42
31225;BME280;17847;31.524;74.366;2022-11-15T00:51:38;99220.22;;;17.14;73.39
31225;BME280;17847;31.524;74.366;2022-11-15T00:54:32;99216.41;;;17.15;72.89
31225;BME280;17847;31.524;74.366;2022-11-15T00:57:46;99220.84;;;17.05;73.06
31225;BME280;17847;31.524;74.366;2022-11-15T01:00:40;99222.13;;;17.02;73.18
31225;BME280;17847;31.524;74.366;2022-11-15T01:03:53;99222.09;;;16.85;73.98
31225;BME280;17847;31.524;74.366;2022-11-15T01:06:52;99220.31;;;16.91;73.19
31225;BME280;17847;31.524;74.366;2022-11-15T01:10:06;99226.56;;;16.91;73.27
31225;BME280;17847;31.524;74.366;2022-11-15T01:13:00;99228.78;;;16.94;73.54
31225;BME280;17847;31.524;74.366;2022-11-15T01:16:16;99226.81;;;16.90;73.16
31225;BME280;17847;31.524;74.366;2022-11-15T01:19:11;99227.88;;;16.89;73.41
31225;BME280;17847;31.524;74.366;2022-11-15T01:22:24;99225.09;;;17.00;73.08
31225;BME280;17847;31.524;74.366;2022-11-15T01:25:18;99229.19;;;16.86;72.83
31225;BME280;17847;31.524;74.366;2022-11-15T01:28:34;99241.34;;;17.00;73.08
31225;BME280;17847;31.524;74.366;2022-11-15T01:31:35;99237.59;;;17.01;72.58
31225;BME280;17847;31.524;74.366;2022-11-15T01:34:42;99244.72;;;16.79;73.45
31225;BME280;17847;31.524;74.366;2022-11-15T01:37:43;99242.19;;;16.72;73.17
31225;BME280;17847;31.524;74.366;2022-11-15T01:40:51;99255.56;;;16.79;73.57
31225;BME280;17847;31.524;74.366;2022-11-15T01:47:28;99256.38;;;16.79;72.71
31225;BME280;17847;31.524;74.366;2022-11-15T01:50:31;99263.38;;;16.87;72.74
31225;BME280;17847;31.524;74.366;2022-11-15T01:53:40;99261.41;;;16.99;72.94
31225;BME280;17847;31.524;74.366;2022-11-15T01:56:53;99266.75;;;16.94;72.67
31225;BME280;17847;31.524;74.366;2022-11-15T02:00:04;99274.41;;;16.97;72.42
31225;BME280;17847;31.524;74.366;2022-11-15T02:03:05;99271.16;;;16.83;72.60
31225;BME280;17847;31.524;74.366;2022-11-15T02:06:20;99269.09;;;17.02;72.34
31225;BME280;17847;31.524;74.366;2022-11-15T02:09:22;99277.22;;;17.02;71.94
31225;BME280;17847;31.524;74.366;2022-11-15T02:12:37;99277.88;;;17.10;72.21
31225;BME280;17847;31.524;74.366;2022-11-15T02:15:40;99279.38;;;17.17;72.45
31225;BME280;17847;31.524;74.366;2022-11-15T02:33:38;99304.09;;;17.50;71.22
31225;BME280;17847;31.524;74.366;2022-11-15T02:37:11;99308.88;;;17.59;70.81
31225;BME280;17847;31.524;74.366;2022-11-15T02:44:01;99319.06;;;17.69;70.34
31225;BME280;17847;31.524;74.366;2022-11-15T02:47:02;99323.88;;;17.79;70.50
31225;BME280;17847;31.524;74.366;2022-11-15T02:50:23;99325.75;;;17.78;69.77
31225;BME280;17847;31.524;74.366;2022-11-15T02:53:18;99334.75;;;18.13;68.65
31225;BME280;17847;31.524;74.366;2022-11-15T02:56:32;99343.56;;;18.03;68.12
31225;BME280;17847;31.524;74.366;2022-11-15T03:06:37;99363.44;;;18.43;66.82
31225;BME280;17847;31.524;74.366;2022-11-15T03:10:05;99370.34;;;18.50;67.08
31225;BME280;17847;31.524;74.366;2022-11-15T03:13:26;99367.34;;;18.30;66.08
31225;BME280;17847;31.524;74.366;2022-11-15T03:16:58;99372.28;;;18.72;66.26
31225;BME280;17847;31.524;74.366;2022-11-15T03:20:05;99374.34;;;18.82;65.58
31225;BME280;17847;31.524;74.366;2022-11-15T03:23:20;99379.94;;;18.92;64.69
31225;BME280;17847;31.524;74.366;2022-11-15T03:26:23;99382.88;;;19.34;64.90
31225;BME280;17847;31.524;74.366;2022-11-15T03:29:39;99385.53;;;19.56;62.94
31225;BME280;17847;31.524;74.366;2022-11-15T03:32:49;99380.16;;;19.84;63.65
31225;BME280;17847;31.524;74.366;2022-11-15T03:36:05;99377.56;;;20.04;62.26
31225;BME280;17847;31.524;74.366;2022-11-15T03:39:04;99375.13;;;20.03;61.36
31225;BME280;17847;31.524;74.366;2022-11-15T03:42:22;99387.56;;;20.26;59.42
31225;BME280;17847;31.524;74.366;2022-11-15T03:45:31;99390.63;;;20.72;59.11
31225;BME280;17847;31.524;74.366;2022-11-15T03:48:54;99385.03;;;21.88;56.47
31225;BME280;17847;31.524;74.366;2022-11-15T03:51:50;99383.13;;;21.88;55.07
31225;BME280;17847;31.524;74.366;2022-11-15T03:55:08;99386.00;;;21.41;55.38
31225;BME280;17847;31.524;74.366;2022-11-15T03:58:11;99388.53;;;22.76;52.60
31225;BME280;17847;31.524;74.366;2022-11-15T04:01:24;99390.28;;;23.26;52.12
31225;BME280;17847;31.524;74.366;2022-11-15T04:04:25;99393.16;;;22.80;51.58
31225;BME280;17847;31.524;74.366;2022-11-15T04:07:31;99387.72;;;22.60;51.56
31225;BME280;17847;31.524;74.366;2022-11-15T04:10:32;99390.91;;;22.93;52.60
31225;BME280;17847;31.524;74.366;2022-11-15T04:13:39;99388.78;;;22.84;51.04
31225;BME280;17847;31.524;74.366;2022-11-15T04:16:40;99395.31;;;22.94;52.00
31225;BME280;17847;31.524;74.366;2022-11-15T04:19:53;99401.34;;;22.91;50.87
31225;BME280;17847;31.524;74.366;2022-11-15T04:23:25;99401.97;;;23.42;50.08
31225;BME280;17847;31.524;74.366;2022-11-15T04:26:44;99402.72;;;23.98;49.46
31225;BME280;17847;31.524;74.366;2022-11-15T04:29:51;99406.50;;;24.41;50.04
31225;BME280;17847;31.524;74.366;2022-11-15T04:32:52;99404.56;;;23.23;49.14
31225;BME280;17847;31.524;74.366;2022-11-15T04:35:59;99403.28;;;23.50;51.06
31225;BME280;17847;31.524;74.366;2022-11-15T04:39:18;99403.44;;;23.19;49.31
31225;BME280;17847;31.524;74.366;2022-11-15T04:42:31;99416.22;;;22.33;51.54
31225;BME280;17847;31.524;74.366;2022-11-15T04:45:25;99409.44;;;23.32;50.16
31225;BME280;17847;31.524;74.366;2022-11-15T04:48:39;99408.81;;;23.95;50.02
31225;BME280;17847;31.524;74.366;2022-11-15T04:51:33;99413.22;;;23.41;48.86
31225;BME280;17847;31.524;74.366;2022-11-15T04:54:46;99420.69;;;23.80;50.27
31225;BME280;17847;31.524;74.366;2022-11-15T04:57:40;99420.00;;;23.54;48.78
31225;BME280;17847;31.524;74.366;2022-11-15T05:00:53;99414.41;;;23.74;48.89
31225;BME280;17847;31.524;74.366;2022-11-15T05:03:54;99407.53;;;23.82;47.70
31225;BME280;17847;31.524;74.366;2022-11-15T05:07:19;99404.25;;;23.80;48.23
31225;BME280;17847;31.524;74.366;2022-11-15T05:10:20;99400.75;;;24.09;47.30
31225;BME280;17847;31.524;74.366;2022-11-15T05:13:35;99405.19;;;23.55;47.53
31225;BME280;17847;31.524;74.366;2022-11-15T05:16:29;99409.88;;;23.54;49.56
31225;BME280;17847;31.524;74.366;2022-11-15T05:19:43;99399.47;;;23.96;47.57
31225;BME280;17847;31.524;74.366;2022-11-15T05:22:58;99395.41;;;24.22;47.47
31225;BME280;17847;31.524;74.366;2022-11-15T05:26:00;99399.63;;;23.15;49.23
31225;BME280;17847;31.524;74.366;2022-11-15T05:29:09;99403.00;;;23.57;48.14
31225;BME280;17847;31.524;74.366;2022-11-15T05:32:12;99400.75;;;24.38;47.44
31225;BME280;17847;31.524;74.366;2022-11-15T05:35:40;99392.00;;;24.07;47.29
31225;BME280;17847;31.524;74.366;2022-11-15T05:38:42;99399.56;;;24.49;47.25
31225;BME280;17847;31.524;74.366;2022-11-15T05:44:59;99403.66;;;24.81;47.61
31225;BME280;17847;31.524;74.366;2022-11-15T05:48:14;99398.56;;;24.69;45.68
31225;BME280;17847;31.524;74.366;2022-11-15T05:51:08;99400.22;;;24.36;48.31
31225;BME280;17847;31.524;74.366;2022-11-15T05:54:22;99397.03;;;23.94;47.93
31225;BME280;17847;31.524;74.366;2022-11-15T05:57:17;99381.69;;;24.57;47.15
31225;BME280;17847;31.524;74.366;2022-11-15T06:00:31;99372.69;;;24.51;48.05
31225;BME280;17847;31.524;74.366;2022-11-15T06:03:26;99385.06;;;24.97;47.94
31225;BME280;17847;31.524;74.366;2022-11-15T06:06:39;99379.69;;;24.62;46.77
31225;BME280;17847;31.524;74.366;2022-11-15T06:09:33;99370.88;;;25.14;47.43
31225;BME280;17847;31.524;74.366;2022-11-15T06:12:48;99366.97;;;24.96;46.79
31225;BME280;17847;31.524;74.366;2022-11-15T06:15:49;99364.00;;;24.39;47.99
31225;BME280;17847;31.524;74.366;2022-11-15T06:19:02;99364.50;;;25.18;48.17
31225;BME280;17847;31.524;74.366;2022-11-15T06:21:56;99358.94;;;24.80;47.52
31225;BME280;17847;31.524;74.366;2022-11-15T06:25:09;99363.66;;;25.18;46.25
31225;BME280;17847;31.524;74.366;2022-11-15T06:28:03;99362.53;;;25.24;46.82
31225;BME280;17847;31.524;74.366;2022-11-15T06:31:18;99360.34;;;25.21;46.88
31225;BME280;17847;31.524;74.366;2022-11-15T06:34:12;99357.13;;;25.14;45.01
31225;BME280;17847;31.524;74.366;2022-11-15T06:37:26;99347.84;;;25.34;47.36
31225;BME280;17847;31.524;74.366;2022-11-15T06:40:20;99339.63;;;24.86;47.49
31225;BME280;17847;31.524;74.366;2022-11-15T06:43:36;99334.63;;;25.36;45.27
31225;BME280;17847;31.524;74.366;2022-11-15T06:46:30;99330.41;;;25.19;45.47
31225;BME280;17847;31.524;74.366;2022-11-15T06:49:31;99319.09;;;25.26;46.38
31225;BME280;17847;31.524;74.366;2022-11-15T06:52:37;99315.09;;;24.94;47.76
31225;BME280;17847;31.524;74.366;2022-11-15T06:55:38;99305.66;;;25.44;45.70
31225;BME280;17847;31.524;74.366;2022-11-15T06:58:53;99307.84;;;25.04;46.58
31225;BME280;17847;31.524;74.366;2022-11-15T07:01:54;99297.41;;;25.25;46.86
31225;BME280;17847;31.524;74.366;2022-11-15T07:05:07;99295.41;;;24.87;47.67
31225;BME280;17847;31.524;74.366;2022-11-15T07:08:01;99288.75;;;25.12;45.73
31225;BME280;17847;31.524;74.366;2022-11-15T07:11:15;99281.28;;;25.56;46.17
31225;BME280;17847;31.524;74.366;2022-11-15T07:14:16;99280.41;;;25.42;46.26
31225;BME280;17847;31.524;74.366;2022-11-15T07:17:32;99270.59;;;25.35;45.40
31225;BME280;17847;31.524;74.366;2022-11-15T07:20:32;99264.91;;;25.32;46.19
31225;BME280;17847;31.524;74.366;2022-11-15T07:23:47;99257.88;;;25.58;45.84
31225;BME280;17847;31.524;74.366;2022-11-15T07:26:48;99257.44;;;24.94;46.49
31225;BME280;17847;31.524;74.366;2022-11-15T07:29:55;99246.22;;;25.48;48.48
31225;BME280;17847;31.524;74.366;2022-11-15T07:32:57;99245.03;;;24.97;46.42
31225;BME280;17847;31.524;74.366;2022-11-15T07:36:06;99233.56;;;25.33;46.96
31225;BME280;17847;31.524;74.366;2022-11-15T07:39:07;99233.84;;;25.31;45.76
31225;BME280;17847;31.524;74.366;2022-11-15T07:42:15;99226.53;;;25.59;45.74
31225;BME280;17847;31.524;74.366;2022-11-15T07:45:39;99220.34;;;25.35;44.82
31225;BME280;17847;31.524;74.366;2022-11-15T07:48:47;99219.00;;;25.13;45.04
31225;BME280;17847;31.524;74.366;2022-11-15T07:51:48;99208.81;;;24.95;46.70
31225;BME280;17847;31.524;74.366;2022-11-15T07:54:54;99201.78;;;25.27;46.25
31225;BME280;17847;31.524;74.366;2022-11-15T07:58:06;99195.97;;;25.47;45.91
31225;BME280;17847;31.524;74.366;2022-11-15T08:01:12;99194.66;;;25.26;46.97
31225;BME280;17847;31.524;74.366;2022-11-15T08:04:13;99198.00;;;25.04;45.98
31225;BME280;17847;31.524;74.366;2022-11-15T08:07:20;99196.56;;;25.06;47.24
31225;BME280;17847;31.524;74.366;2022-11-15T08:10:21;99192.97;;;24.73;47.27
31225;BME280;17847;31.524;74.366;2022-11-15T08:13:29;99186.22;;;25.03;47.29
31225;BME280;17847;31.524;74.366;2022-11-15T08:16:31;99182.50;;;24.94;45.89
31225;BME280;17847;31.524;74.366;2022-11-15T08:19:45;99177.66;;;24.86;47.53
31225;BME280;17847;31.524;74.366;2022-11-15T08:22:59;99171.78;;;25.11;46.61
31225;BME280;17847;31.524;74.366;2022-11-15T08:26:13;99176.03;;;25.04;46.43
31225;BME280;17847;31.524;74.366;2022-11-15T08:29:07;99167.91;;;25.31;47.75
31225;BME280;17847;31.524;74.366;2022-11-15T08:32:21;99165.84;;;25.04;46.59
31225;BME280;17847;31.524;74.366;2022-11-15T08:35:15;99166.88;;;25.08;46.56
31225;BME280;17847;31.524;74.366;2022-11-15T08:38:29;99159.56;;;25.04;47.34
31225;BME280;17847;31.524;74.366;2022-11-15T08:41:30;99155.56;;;24.96;48.04
31225;BME280;17847;31.524;74.366;2022-11-15T08:44:45;99159.44;;;25.09;46.72
31225;BME280;17847;31.524;74.366;2022-11-15T08:47:45;99143.59;;;25.25;47.41
31225;BME280;17847;31.524;74.366;2022-11-15T08:50:54;99138.84;;;25.11;48.20
31225;BME280;17847;31.524;74.366;2022-11-15T08:53:55;99133.41;;;25.25;48.92
31225;BME280;17847;31.524;74.366;2022-11-15T08:57:02;99130.66;;;25.25;48.32
31225;BME280;17847;31.524;74.366;2022-11-15T09:00:03;99128.22;;;25.24;48.07
31225;BME280;17847;31.524;74.366;2022-11-15T09:03:19;99115.31;;;25.24;48.54
31225;BME280;17847;31.524;74.366;2022-11-15T09:06:20;99125.00;;;25.16;48.79
31225;BME280;17847;31.524;74.366;2022-11-15T09:09:40;99116.56;;;25.32;49.22
31225;BME280;17847;31.524;74.366;2022-11-15T09:12:41;99109.13;;;25.13;48.68
31225;BME280;17847;31.524;74.366;2022-11-15T09:15:48;99109.13;;;25.13;47.89
31225;BME280;17847;31.524;74.366;2022-11-15T09:18:49;99097.00;;;24.81;48.72
31225;BME280;17847;31.524;74.366;2022-11-15T09:21:55;99101.78;;;25.09;48.46
31225;BME280;17847;31.524;74.366;2022-11-15T09:24:56;99103.13;;;24.78;47.69
31225;BME280;17847;31.524;74.366;2022-11-15T09:28:09;99095.47;;;25.08;48.65
31225;BME280;17847;31.524;74.366;2022-11-15T09:31:10;99096.88;;;24.92;47.29
31225;BME280;17847;31.524;74.366;2022-11-15T09:34:20;99099.34;;;25.07;48.23
31225;BME280;17847;31.524;74.366;2022-11-15T09:37:21;99100.19;;;25.21;49.16
31225;BME280;17847;31.524;74.366;2022-11-15T09:40:29;99093.09;;;25.20;48.26
31225;BME280;17847;31.524;74.366;2022-11-15T09:56:52;99093.41;;;24.86;47.98
31225;BME280;17847;31.524;74.366;2022-11-15T10:03:33;99093.44;;;25.00;49.36
31225;BME280;17847;31.524;74.366;2022-11-15T10:06:27;99092.19;;;24.92;49.34
31225;BME280;17847;31.524;74.366;2022-11-15T10:12:36;99086.94;;;24.77;48.03
31225;BME280;17847;31.524;74.366;2022-11-15T10:15:15;99083.16;;;24.73;49.77
31225;BME280;17847;31.524;74.366;2022-11-15T10:18:18;99091.50;;;25.00;48.34
31225;BME280;17847;31.524;74.366;2022-11-15T10:21:09;99082.63;;;24.90;52.08
31225;BME280;17847;31.524;74.366;2022-11-15T10:24:11;99083.69;;;24.75;51.52
31225;BME280;17847;31.524;74.366;2022-11-15T10:26:48;99087.91;;;24.48;48.35
31225;BME280;17847;31.524;74.366;2022-11-15T10:29:48;99079.53;;;24.58;47.74
31225;BME280;17847;31.524;74.366;2022-11-15T10:32:34;99067.81;;;24.53;48.64
31225;BME280;17847;31.524;74.366;2022-11-15T10:35:25;99063.94;;;24.16;47.92
31225;BME280;17847;31.524;74.366;2022-11-15T10:38:09;99067.44;;;24.40;49.48
31225;BME280;17847;31.524;74.366;2022-11-15T10:41:08;99063.47;;;24.52;50.87
31225;BME280;17847;31.524;74.366;2022-11-15T10:50:00;99059.44;;;24.25;49.46
31225;BME280;17847;31.524;74.366;2022-11-15T10:52:57;99064.91;;;24.25;49.78
31225;BME280;17847;31.524;74.366;2022-11-15T10:55:40;99060.69;;;24.14;50.10
31225;BME280;17847;31.524;74.366;2022-11-15T10:58:44;99060.78;;;24.03;50.32
31225;BME280;17847;31.524;74.366;2022-11-15T11:01:45;99066.66;;;23.97;52.25
31225;BME280;17847;31.524;74.366;2022-11-15T11:04:49;99064.66;;;24.02;50.82
31225;BME280;17847;31.524;74.366;2022-11-15T11:07:33;99061.19;;;24.16;49.85
31225;BME280;17847;31.524;74.366;2022-11-15T11:10:22;99058.59;;;24.24;49.25
31225;BME280;17847;31.524;74.366;2022-11-15T11:13:29;99057.91;;;23.95;49.80
31225;BME280;17847;31.524;74.366;2022-11-15T11:16:46;99049.06;;;23.79;51.14
31225;BME280;17847;31.524;74.366;2022-11-15T11:48:23;99045.06;;;23.18;53.77
31225;BME280;17847;31.524;74.366;2022-11-15T11:57:06;99035.19;;;22.87;55.03
31225;BME280;17847;31.524;74.366;2022-11-15T12:05:55;99040.25;;;22.70;56.20
31225;BME280;17847;31.524;74.366;2022-11-15T12:11:55;99033.94;;;22.70;55.73
31225;BME280;17847;31.524;74.366;2022-11-15T12:14:50;99041.69;;;22.62;57.40
31225;BME280;17847;31.524;74.366;2022-11-15T12:17:41;99036.25;;;22.57;57.49
31225;BME280;17847;31.524;74.366;2022-11-15T12:20:27;99035.97;;;22.59;56.54
31225;BME280;17847;31.524;74.366;2022-11-15T12:23:29;99041.97;;;22.61;57.48
31225;BME280;17847;31.524;74.366;2022-11-15T12:26:26;99027.25;;;22.52;58.17
31225;BME280;17847;31.524;74.366;2022-11-15T12:29:31;99036.28;;;22.52;58.11
31225;BME280;17847;31.524;74.366;2022-11-15T12:32:37;99041.47;;;22.54;56.70
31225;BME280;17847;31.524;74.366;2022-11-15T12:35:40;99041.28;;;22.40;58.62
31225;BME280;17847;31.524;74.366;2022-11-15T12:39:03;99052.44;;;22.48;57.33
31225;BME280;17847;31.524;74.366;2022-11-15T12:47:27;99048.66;;;22.39;57.43
31225;BME280;17847;31.524;74.366;2022-11-15T12:50:04;99054.19;;;22.34;57.49
31225;BME280;17847;31.524;74.366;2022-11-15T12:59:07;99053.13;;;22.20;58.09
31225;BME280;17847;31.524;74.366;2022-11-15T13:04:38;99054.81;;;22.16;55.52
31225;BME280;17847;31.524;74.366;2022-11-15T13:10:33;99058.66;;;22.15;57.90
31225;BME280;17847;31.524;74.366;2022-11-15T13:13:43;99065.19;;;22.14;57.80
31225;BME280;17847;31.524;74.366;2022-11-15T13:16:42;99060.59;;;22.04;58.07
31225;BME280;17847;31.524;74.366;2022-11-15T13:19:26;99066.06;;;22.04;58.36
31225;BME280;17847;31.524;74.366;2022-11-15T13:22:14;99064.22;;;21.89;59.78
31225;BME280;17847;31.524;74.366;2022-11-15T13:30:59;99080.94;;;21.77;58.14
31225;BME280;17847;31.524;74.366;2022-11-15T13:33:59;99069.16;;;21.82;59.25
31225;BME280;17847;31.524;74.366;2022-11-15T13:37:12;99067.53;;;21.81;59.26
31225;BME280;17847;31.524;74.366;2022-11-15T13:49:09;99085.06;;;21.64;59.40
31225;BME280;17847;31.524;74.366;2022-11-15T13:52:07;99084.00;;;21.65;58.65
31225;BME280;17847;31.524;74.366;2022-11-15T13:58:03;99089.19;;;21.57;59.17
31225;BME280;17847;31.524;74.366;2022-11-15T14:00:48;99090.84;;;21.53;60.78
31225;BME280;17847;31.524;74.366;2022-11-15T14:03:55;99090.03;;;21.57;59.73
31225;BME280;17847;31.524;74.366;2022-11-15T14:06:45;99086.22;;;21.48;59.56
31225;BME280;17847;31.524;74.366;2022-11-15T14:09:37;99084.56;;;21.52;60.13
31225;BME280;17847;31.524;74.366;2022-11-15T14:12:35;99092.19;;;21.55;60.24
31225;BME280;17847;31.524;74.366;2022-11-15T14:15:33;99092.75;;;21.52;60.73
31225;BME280;17847;31.524;74.366;2022-11-15T14:18:39;99091.69;;;21.48;60.57
31225;BME280;17847;31.524;74.366;2022-11-15T14:21:28;99097.69;;;21.45;61.03
31225;BME280;17847;31.524;74.366;2022-11-15T14:24:30;99102.03;;;21.41;60.74
31225;BME280;17847;31.524;74.366;2022-11-15T14:30:19;99098.22;;;21.57;58.98
31225;BME280;17847;31.524;74.366;2022-11-15T14:33:11;99094.91;;;21.55;59.75
31225;BME280;17847;31.524;74.366;2022-11-15T14:36:18;99094.38;;;21.43;60.68
31225;BME280;17847;31.524;74.366;2022-11-15T14:39:01;99102.84;;;21.41;60.81
31225;BME280;17847;31.524;74.366;2022-11-15T14:41:52;99096.03;;;21.34;60.97
31225;BME280;17847;31.524;74.366;2022-11-15T14:44:35;99098.78;;;21.23;60.71
31225;BME280;17847;31.524;74.366;2022-11-15T14:47:30;99100.41;;;21.29;61.10
31225;BME280;17847;31.524;74.366;2022-11-15T14:50:17;99100.72;;;21.23;60.84
31225;BME280;17847;31.524;74.366;2022-11-15T14:53:06;99115.72;;;21.30;60.79
31225;BME280;17847;31.524;74.366;2022-11-15T14:55:50;99114.59;;;21.26;60.89
31225;BME280;17847;31.524;74.366;2022-11-15T14:58:39;99115.44;;;21.27;60.82
31225;BME280;17847;31.524;74.366;2022-11-15T15:01:25;99112.44;;;21.23;60.46
31225;BME280;17847;31.524;74.366;2022-11-15T15:04:14;99115.44;;;21.22;61.35
31225;BME280;17847;31.524;74.366;2022-11-15T15:06:50;99105.38;;;21.02;61.83
31225;BME280;17847;31.524;74.366;2022-11-15T15:09:46;99113.28;;;21.14;61.43
31225;BME280;17847;31.524;74.366;2022-11-15T15:12:49;99107.53;;;21.05;61.66
31225;BME280;17847;31.524;74.366;2022-11-15T15:15:37;99104.81;;;20.95;62.02
31225;BME280;17847;31.524;74.366;2022-11-15T15:18:20;99104.53;;;20.91;62.24
31225;BME280;17847;31.524;74.366;2022-11-15T15:21:21;99098.25;;;20.80;63.38
31225;BME280;17847;31.524;74.366;2022-11-15T15:24:17;99108.34;;;20.80;63.69
31225;BME280;17847;31.524;74.366;2022-11-15T15:26:53;99101.25;;;20.94;63.17
31225;BME280;17847;31.524;74.366;2022-11-15T15:29:48;99106.44;;;20.90;63.56
31225;BME280;17847;31.524;74.366;2022-11-15T15:32:24;99106.97;;;20.82;63.54
31225;BME280;17847;31.524;74.366;2022-11-15T15:35:20;99114.09;;;20.88;63.11
31225;BME280;17847;31.524;74.366;2022-11-15T15:37:56;99104.81;;;20.95;64.31
31225;BME280;17847;31.524;74.366;2022-11-15T15:40:52;99108.34;;;21.00;63.31
31225;BME280;17847;31.524;74.366;2022-11-15T15:43:36;99111.06;;;20.95;62.92
31225;BME280;17847;31.524;74.366;2022-11-15T15:46:25;99107.53;;;20.89;62.68
31225;BME280;17847;31.524;74.366;2022-11-15T15:49:11;99108.63;;;20.99;63.06
31225;BME280;17847;31.524;74.366;2022-11-15T15:52:00;99110.81;;;20.81;62.91
31225;BME280;17847;31.524;74.366;2022-11-15T15:54:43;99107.81;;;20.83;63.70
31225;BME280;17847;31.524;74.366;2022-11-15T15:57:31;99107.53;;;20.89;62.53
31225;BME280;17847;31.524;74.366;2022-11-15T16:00:17;99102.88;;;20.90;62.54
31225;BME280;17847;31.524;74.366;2022-11-15T16:03:06;99106.97;;;20.82;62.43
31225;BME280;17847;31.524;74.366;2022-11-15T16:05:52;99097.69;;;20.68;63.11
31225;BME280;17847;31.524;74.366;2022-11-15T16:08:41;99108.53;;;20.58;63.43
31225;BME280;17847;31.524;74.366;2022-11-15T16:11:45;99102.00;;;20.53;63.65
31225;BME280;17847;31.524;74.366;2022-11-15T16:14:36;99101.44;;;20.51;63.64
31225;BME280;17847;31.524;74.366;2022-11-15T16:17:23;99108.06;;;20.86;63.87
31225;BME280;17847;31.524;74.366;2022-11-15T16:20:36;99103.69;;;20.65;63.26
31225;BME280;17847;31.524;74.366;2022-11-15T16:23:26;99096.81;;;20.47;63.95
31225;BME280;17847;31.524;74.366;2022-11-15T16:26:26;99091.31;;;20.37;64.58
31225;BME280;17847;31.524;74.366;2022-11-15T16:29:16;99098.66;;;20.31;64.81
31225;BME280;17847;31.524;74.366;2022-11-15T16:32:01;99090.53;;;20.41;64.58
31225;BME280;17847;31.524;74.366;2022-11-15T16:34:56;99086.16;;;20.35;65.06
31225;BME280;17847;31.524;74.366;2022-11-15T16:37:40;99086.13;;;20.25;64.98
31225;BME280;17847;31.524;74.366;2022-11-15T16:40:37;99080.13;;;20.28;65.30
31225;BME280;17847;31.524;74.366;2022-11-15T16:43:13;99079.03;;;20.29;65.19
31225;BME280;17847;31.524;74.366;2022-11-15T16:46:20;99082.59;;;20.24;64.89
31225;BME280;17847;31.524;74.366;2022-11-15T16:49:03;99083.66;;;20.23;64.90
31225;BME280;17847;31.524;74.366;2022-11-15T16:51:51;99083.63;;;20.13;65.71
31225;BME280;17847;31.524;74.366;2022-11-15T16:54:34;99082.53;;;20.09;65.37
31225;BME280;17847;31.524;74.366;2022-11-15T16:57:22;99082.28;;;20.21;65.72
31225;BME280;17847;31.524;74.366;2022-11-15T17:00:05;99080.06;;;20.07;65.55
31225;BME280;17847;31.524;74.366;2022-11-15T17:02:57;99069.72;;;20.09;65.82
31225;BME280;17847;31.524;74.366;2022-11-15T17:05:40;99068.66;;;20.10;65.86
31225;BME280;17847;31.524;74.366;2022-11-15T17:08:28;99075.47;;;20.13;65.50
31225;BME280;17847;31.524;74.366;2022-11-15T17:11:15;99065.88;;;19.95;66.46
31225;BME280;17847;31.524;74.366;2022-11-15T17:14:04;99058.19;;;19.87;66.90
31225;BME280;17847;31.524;74.366;2022-11-15T17:16:47;99062.53;;;19.83;66.83
31225;BME280;17847;31.524;74.366;2022-11-15T17:19:35;99059.31;;;19.86;67.18
31225;BME280;17847;31.524;74.366;2022-11-15T17:22:24;99061.09;;;19.70;67.62
31225;BME280;17847;31.524;74.366;2022-11-15T17:25:19;99056.47;;;19.70;67.18
31225;BME280;17847;31.524;74.366;2022-11-15T17:28:02;99052.91;;;19.70;67.87
31225;BME280;17847;31.524;74.366;2022-11-15T17:30:58;99048.09;;;19.72;68.02
31225;BME280;17847;31.524;74.366;2022-11-15T17:33:34;99060.34;;;19.74;68.71
31225;BME280;17847;31.524;74.366;2022-11-15T17:36:30;99060.59;;;19.73;68.15
31225;BME280;17847;31.524;74.366;2022-11-15T17:39:13;99054.25;;;19.62;68.29
31225;BME280;17847;31.524;74.366;2022-11-15T17:42:02;99049.94;;;19.71;67.84
31225;BME280;17847;31.524;74.366;2022-11-15T17:44:38;99044.13;;;19.52;68.60
31225;BME280;17847;31.524;74.366;2022-11-15T17:47:33;99049.31;;;19.54;68.94
31225;BME280;17847;31.524;74.366;2022-11-15T17:50:09;99047.41;;;19.49;69.01
31225;BME280;17847;31.524;74.366;2022-11-15T17:53:05;99042.72;;;19.40;69.33
31225;BME280;17847;31.524;74.366;2022-11-15T17:55:41;99036.97;;;19.36;69.57
31225;BME280;17847;31.524;74.366;2022-11-15T17:58:36;99044.03;;;19.32;69.80
31225;BME280;17847;31.524;74.366;2022-11-15T18:01:22;99045.34;;;19.24;70.16
31225;BME280;17847;31.524;74.366;2022-11-15T18:04:11;99039.38;;;19.27;70.19